KCSG

Columbus Airport

Columbus, Georgia, USA
KCSG 181139Z 1812/1912 00000KT P6SM OVC012 FM182200 VRB03KT P6SM BKN010 FM190300 VRB03KT 4SM BR OVC009 FM190800 17006KT 2SM BR OVC005 PROB30 1908/1912 1/2SM -SHRA FG OVC002
Issued Valid From Valid To
Jan-18 @ 11:39 UTC
(13 minutes ago)
Jan-18 @ 12:00 UTC
(in 8 minutes)
Jan-19 @ 12:00 UTC
(in 24 hours)
Jan-18 @ 12:00 to Jan-18 @ 22:00
KCSG 181139Z 1812/1912 00000KT P6SM OVC012
Visibility Clouds
Greater than 6 miles
  • Overcast at 1,200' AGL
From Jan-18 @ 22:00 to Jan-19 @ 03:00
FM182200 VRB03KT P6SM BKN010
Wind Visibility Clouds
Variable at 3 knots Greater than 6 miles
  • Broken at 1,000' AGL
From Jan-19 @ 03:00 to Jan-19 @ 08:00
FM190300 VRB03KT 4SM BR OVC009
Wind Visibility Clouds Conditions
Variable at 3 knots 4 miles
  • Overcast at 900' AGL
  • Mist
Probable  (Probability 30%) Jan-19 @ 08:00 to Jan-19 @ 12:00
PROB30 1908/1912 1/2SM -SHRA FG OVC002
Visibility Clouds Conditions
1/2 miles
  • Overcast at 200' AGL
  • Light Rain
  • Fog
From Jan-19 @ 08:00 to Jan-19 @ 12:00
FM190800 17006KT 2SM BR OVC005
Wind Visibility Clouds Conditions
170° at 6 knots 2 miles
  • Overcast at 500' AGL
  • Mist
KCSG 181139Z 1812/1912 00000KT P6SM OVC012 FM182200 VRB03KT P6SM BKN010 FM190300 VRB03KT 4SM BR OVC009 FM190800 17006KT 2SM BR OVC005 PROB30 1908/1912 1/2SM -SHRA FG OVC002
Issued Jan-18 @ 11:39 UTC
(13 minutes ago)
Valid From Jan-18 @ 12:00 UTC
(in 8 minutes)
Valid To Jan-19 @ 12:00 UTC
(in 24 hours)
Jan-18 @ 12:00 - Jan-18 @ 22:00
Clouds
  • Overcast at 1,200' AGL
From Jan-18 @ 22:00 - Jan-19 @ 03:00
Wind Visibility
Variable at 3 knots Greater than 6 miles
Clouds
  • Broken at 1,000' AGL
From Jan-19 @ 03:00 - Jan-19 @ 08:00
Wind Visibility
Variable at 3 knots 4 miles
Clouds
  • Overcast at 900' AGL
Conditions
  • Mist
Probability 30% Probable Jan-19 @ 08:00 - Jan-19 @ 12:00
Clouds
  • Overcast at 200' AGL
Conditions
  • Light Rain
  • Fog
From Jan-19 @ 08:00 - Jan-19 @ 12:00
Wind Visibility
170° at 6 knots 2 miles
Clouds
  • Overcast at 500' AGL
Conditions
  • Mist